Airfield :
LOGIN :

Register | Disclaimer

   EN    FR    IT 

 










Legend :    VFR   Marginal VFR   IFR   Intensive IFR   Very Intensive IFR
Visi :
Ceiling :
>= 8 km
>= 3000ft
5 to 8 km
1000 to 3000 ft
1500m to 5 km
500 to 1000 ft
800 to 1500m
200 to 500 ft
< 800m
< 200 ft
Symbols :   Thunderstorms  Fog  Heavy snow  Heavy precipitations  Wind > 20 kt
SIGMETs :     Misc.  Thunderstorms  Icing  Turbulence  Mountain Waves  Volcanic Ashes






- Airport Elevation : 587 ft
- IATA code : XCR


LFOK - Chalons Vatry

CURRENT METAR :
  • 210530Z AUTO 26020G31KT 190V290 6000 2500 +RA FEW010/// BKN017/// BKN023/// ///CB 06/04 Q0996 TEMPO 19027G45KT 3000 RA BECMG BKN040

EXPIRED METARs :
  • 210500Z AUTO 19023KT 7000 -RA OVC022/// ///CB 09/07 Q0994 TEMPO 19027G45KT 3000 RA OVC012
  • 210430Z AUTO 19025KT 9999 BKN027/// OVC033/// ///TCU 10/06 Q0994 TEMPO 19027G45KT 3000 RA OVC012
  • 210400Z AUTO 19026G38KT 9999 OVC031 10/06 Q0993 TEMPO 3000 RA OVC012
  • 210330Z AUTO 19027KT 9999 OVC032 10/06 Q0993 TEMPO 19027G45KT 3000 RA OVC012
  • 210300Z AUTO 20028KT 9999 OVC032 11/06 Q0993 TEMPO 19027G45KT 3000 RA OVC012

TAF TAF LFOK
Valid from the 21 at 06:00 until the 22 at 06:00 UTC


210500Z 2106/2206 24015G25KT 9999 BKN040
TEMPO 2106/2107 2000 RA OVC012
TEMPO 2115/2204 20025G40KT 4000 RA BKN012 BKN040CB
FM220400 31012KT 9999 BKN030
BECMG 2204/2206 24010KT



MET'MAP, your aeronautical weather chart ! - Copyright ORBIFLY December 2007 - Disclaimer

ORBIFLY MET'MAP TEAM :

Programming & Development : Alexandra Zaïnal
Concept & original design : Baudouin d'Aumeries
Assistance for programming : Marc-Olivier Méhu
Technical & hardware support : Manuel Goepfert

Contact : metmap@orbifly.com




SOURCES & CREDITS :

   NOAA